INFORMACIÓN METAR y TAF
METAR FOR UEEE
ADDS - METARS form results

(2134 UTC 26 May 2022)
Data provider http://aviationweather.gov/metar/data/
 
METAR text: UEEE 262130Z 03003MPS CAVOK 06/M01 Q1009 R05R/09//60 NOSIG RMK QFE748
Conditions at: UEEE (YAKUTSK , RU) observed 2130 UTC 26 May 2022
Temperature: 6.0°C (43°F)
Dewpoint: -1.0°C (30°F) [RH = 61%]
Pressure (altimeter): 29.79 inches Hg (1009.0 mb)
Winds: from the NNE (30 degrees) at 7 MPH (6 knots; 3.1 m/s)
Visibility: 6 or more miles (10+ km)
Ceiling: ceiling and visibility are OK
Clouds: unknown
Weather: no significant weather observed at this time

METAR text: UEEE 262100Z 02002MPS CAVOK 06/M01 Q1008 R05R/09//60 NOSIG RMK QFE748
Conditions at: UEEE (YAKUTSK , RU) observed 2100 UTC 26 May 2022
Temperature: 6.0°C (43°F)
Dewpoint: -1.0°C (30°F) [RH = 61%]
Pressure (altimeter): 29.76 inches Hg (1008.0 mb)
Winds: from the NNE (20 degrees) at 5 MPH (4 knots; 2.1 m/s)
Visibility: 6 or more miles (10+ km)
Ceiling: ceiling and visibility are OK
Clouds: unknown
Weather: no significant weather observed at this time

Forecast for: UEEE (YAKUTSK , RU)
Text: TAF UEEE 262000Z 2621/2803 36003G08MPS 9999 SCT030
Forecast period: 2100 UTC 26 May 2022 to 0300 UTC 28 May 2022
Forecast type: FROM: standard forecast or significant change
Winds: from the N (360 degrees) at 7 MPH (6 knots; 3.1 m/s)
gusting to 18 MPH (16 knots; 8.2 m/s)
Visibility: 6 or more miles (10+ km)
Ceiling: at least 12,000 feet AGL
Clouds: scattered clouds at 3000 feet AGL
Weather: no significant weather forecast for this period

 MAPA DE AEROPUERTO

 INFORMACIÓN DE PISTA
Pista 05L Longitud 8202 ft Ancho 161 ft
Elevación 322 ft Umbral desplazado 0 ft Rumbo de pista 30
Pista 23R Longitud 8202 ft Ancho 161 ft
Elevación 318 ft Umbral desplazado 3400 ft Rumbo de pista 210
Pista 05R Longitud 11155 ft Ancho 197 ft
Elevación 322 ft Umbral desplazado 2965 ft Rumbo de pista 37
Pista 23L Longitud 11155 ft Ancho 197 ft
Elevación 315 ft Umbral desplazado 0 ft Rumbo de pista 217

 FRECUANCIAS DEL AEROPUERTO
Tipo APP Nombre APP Frecuencia 129.3 MHZ
Tipo ATIS Nombre ATIS Frecuencia 126.2 MHZ
Tipo GND Nombre GND Frecuencia 121.7 MHZ
Tipo RDR Nombre ASR Frecuencia 120.3 MHZ
Tipo TWR Nombre TWR Frecuencia 120 MHZ

 RADIO AYUDAS DEL AEROPUERTO
Tipo NDB Nombre Yakutsk Frecuencia 334 KHZ
Tipo NDB Nombre Yakutsk Frecuencia 290 KHZ
Tipo NDB Nombre Yakutsk Frecuencia 334 KHZ



Powered by Virtual Airlines Manager [v2.6.2]